createdAt,value
2023-05-25T00:00:49.812Z,66.53
2023-05-25T00:02:06.365Z,66.32
2023-05-25T00:03:10.065Z,66.28
2023-05-25T00:04:16.909Z,66.30
2023-05-25T00:05:20.986Z,66.54
2023-05-25T00:06:26.204Z,66.42
2023-05-25T00:07:29.010Z,66.40
2023-05-25T00:08:31.743Z,66.44
2023-05-25T00:09:34.993Z,66.61
2023-05-25T00:10:37.687Z,66.58
2023-05-25T00:11:40.510Z,66.67
2023-05-25T00:12:43.315Z,66.54
2023-05-25T00:13:46.068Z,66.71
2023-05-25T00:14:48.836Z,66.85
2023-05-25T00:15:51.608Z,66.93
2023-05-25T00:16:54.423Z,66.91
2023-05-25T00:17:57.231Z,66.95
2023-05-25T00:19:03.816Z,67.14
2023-05-25T00:20:07.607Z,67.30
2023-05-25T00:21:10.766Z,67.89
2023-05-25T00:22:13.521Z,67.44
2023-05-25T00:23:16.388Z,67.60
2023-05-25T00:24:19.137Z,68.04
2023-05-25T00:25:21.865Z,68.07
2023-05-25T00:26:24.691Z,68.10
2023-05-25T00:27:27.381Z,68.17
2023-05-25T00:28:30.338Z,68.16
2023-05-25T00:29:33.283Z,68.20
2023-05-25T00:30:36.552Z,68.46
2023-05-25T00:31:39.555Z,68.58
2023-05-25T00:32:42.490Z,68.77
2023-05-25T00:33:45.788Z,68.73
2023-05-25T00:34:48.543Z,68.79
2023-05-25T00:35:52.608Z,68.81
2023-05-25T00:36:55.838Z,69.43
2023-05-25T00:37:58.694Z,69.23
2023-05-25T00:39:01.572Z,69.31
2023-05-25T00:40:07.109Z,69.99
2023-05-25T00:41:09.845Z,69.80
2023-05-25T00:42:12.898Z,70.06
2023-05-25T00:43:16.048Z,69.62
2023-05-25T00:44:21.856Z,70.10
2023-05-25T00:45:24.903Z,70.06
2023-05-25T00:46:28.383Z,70.04
2023-05-25T00:47:32.089Z,70.43
2023-05-25T00:48:35.009Z,70.43
2023-05-25T00:49:37.816Z,70.98
2023-05-25T00:50:41.871Z,70.82
2023-05-25T00:51:46.770Z,70.90
2023-05-25T00:52:50.006Z,71.26
2023-05-25T00:53:52.975Z,70.98
2023-05-25T00:55:00.420Z,71.12
2023-05-25T00:56:07.312Z,71.69
2023-05-25T00:57:10.473Z,71.91
2023-05-25T00:58:13.949Z,72.10
2023-05-25T00:59:33.351Z,71.94
2023-05-25T01:00:37.470Z,71.81
2023-05-25T01:01:40.858Z,72.28
2023-05-25T01:02:45.326Z,71.93
2023-05-25T01:03:53.885Z,72.10
2023-05-25T01:04:59.882Z,72.46
2023-05-25T01:06:07.390Z,72.26
2023-05-25T01:07:11.225Z,72.46
2023-05-25T01:08:14.418Z,73.24
2023-05-25T01:09:19.568Z,72.86
2023-05-25T01:10:22.485Z,72.69
2023-05-25T01:11:27.060Z,72.99
2023-05-25T01:12:30.362Z,72.77
2023-05-25T01:13:34.390Z,73.40
2023-05-25T01:14:39.379Z,73.34
2023-05-25T01:15:42.276Z,74.40
2023-05-25T01:16:45.242Z,73.91
2023-05-25T01:17:54.062Z,73.60
2023-05-25T01:18:56.982Z,73.89
2023-05-25T01:20:09.768Z,74.64
2023-05-25T01:21:22.122Z,74.01
2023-05-25T01:22:32.598Z,74.27
2023-05-25T01:23:36.736Z,74.09
2023-05-25T01:24:40.975Z,74.24
2023-05-25T01:25:46.970Z,74.27
2023-05-25T01:26:59.357Z,74.47
2023-05-25T01:28:25.474Z,74.48
2023-05-25T01:29:28.574Z,74.71
2023-05-25T01:31:53.225Z,74.62
2023-05-25T01:32:56.630Z,74.75
2023-05-25T01:33:59.609Z,75.25
2023-05-25T01:35:04.045Z,75.27
2023-05-25T01:36:06.825Z,75.04
2023-05-25T01:37:09.957Z,75.25
2023-05-25T01:38:13.062Z,75.49
2023-05-25T01:39:15.820Z,75.63
2023-05-25T01:40:18.528Z,76.25
2023-05-25T01:41:21.560Z,75.91
2023-05-25T01:42:24.265Z,75.93
2023-05-25T01:43:26.986Z,76.85
2023-05-25T01:44:30.216Z,77.49
2023-05-25T01:45:33.238Z,76.39
2023-05-25T01:46:39.850Z,76.56
2023-05-25T01:48:03.540Z,77.31
2023-05-25T01:49:17.206Z,76.79
2023-05-25T01:50:23.306Z,78.05
2023-05-25T01:51:32.192Z,77.16
2023-05-25T01:52:51.511Z,76.88
2023-05-25T01:53:58.191Z,77.35
2023-05-25T01:55:03.624Z,76.74
2023-05-25T01:56:08.812Z,77.02
2023-05-25T01:57:13.415Z,76.90
2023-05-25T01:58:17.089Z,77.29
2023-05-25T01:59:21.682Z,77.23
2023-05-25T02:00:31.421Z,77.05
2023-05-25T02:01:34.745Z,76.70
2023-05-25T02:02:38.314Z,76.97
2023-05-25T02:03:41.578Z,76.81
2023-05-25T02:04:45.660Z,77.31
2023-05-25T02:05:48.586Z,78.69
2023-05-25T02:06:54.373Z,79.39
2023-05-25T02:07:57.160Z,77.81
2023-05-25T02:08:59.945Z,77.90
2023-05-25T02:10:02.936Z,78.18
2023-05-25T02:11:05.685Z,77.77
2023-05-25T02:12:08.539Z,78.86
2023-05-25T02:13:11.368Z,78.72
2023-05-25T02:14:14.532Z,78.41
2023-05-25T02:15:18.118Z,78.27
2023-05-25T02:16:22.268Z,78.69
2023-05-25T02:17:28.088Z,78.53
2023-05-25T02:18:30.892Z,78.17
2023-05-25T02:19:33.661Z,78.26
2023-05-25T02:20:36.997Z,78.36
2023-05-25T02:21:39.767Z,78.26
2023-05-25T02:22:42.477Z,78.11
2023-05-25T02:23:45.201Z,78.38
2023-05-25T02:24:48.091Z,78.89
2023-05-25T02:25:51.924Z,78.09
2023-05-25T02:26:54.868Z,77.97
2023-05-25T02:27:58.253Z,78.23
2023-05-25T02:29:03.449Z,78.30
2023-05-25T02:30:06.597Z,78.10
2023-05-25T02:31:09.360Z,78.24
2023-05-25T02:32:12.202Z,78.72
2023-05-25T02:33:15.036Z,78.26
2023-05-25T02:34:17.786Z,78.46
2023-05-25T02:35:21.858Z,78.45
2023-05-25T02:36:24.617Z,78.42
2023-05-25T02:37:27.486Z,78.39
2023-05-25T02:38:30.773Z,78.20
2023-05-25T02:39:34.176Z,78.43
2023-05-25T02:40:36.978Z,78.21
2023-05-25T02:41:39.770Z,78.30
2023-05-25T02:42:43.294Z,78.79
2023-05-25T02:43:46.254Z,78.57
2023-05-25T02:44:49.048Z,78.40
2023-05-25T02:45:51.869Z,78.65
2023-05-25T02:46:54.661Z,78.42
2023-05-25T02:47:57.441Z,78.86
2023-05-25T02:49:00.692Z,78.70
2023-05-25T02:50:04.289Z,78.54
2023-05-25T02:51:08.185Z,78.74
2023-05-25T02:52:11.104Z,78.42
2023-05-25T02:53:14.015Z,78.87
2023-05-25T02:54:17.268Z,78.64
2023-05-25T02:55:20.458Z,78.61
2023-05-25T02:56:23.509Z,78.64
2023-05-25T02:57:27.004Z,78.56
2023-05-25T02:58:29.919Z,78.81
2023-05-25T03:00:01.668Z,78.75
2023-05-25T03:01:05.903Z,78.96
2023-05-25T03:02:10.277Z,78.93
2023-05-25T03:03:14.095Z,79.09
2023-05-25T03:04:18.108Z,79.15
2023-05-25T03:05:20.891Z,78.82
2023-05-25T03:06:26.177Z,79.12
2023-05-25T03:07:34.526Z,79.10
2023-05-25T03:08:37.488Z,79.06
2023-05-25T03:09:40.426Z,79.04
2023-05-25T03:10:43.931Z,79.02
2023-05-25T03:11:47.114Z,79.24
2023-05-25T03:12:52.417Z,79.09
2023-05-25T03:13:55.317Z,79.16
2023-05-25T03:14:58.411Z,79.04
2023-05-25T03:16:01.875Z,78.99
2023-05-25T03:17:04.982Z,79.16
2023-05-25T03:18:07.880Z,79.21
2023-05-25T03:19:13.691Z,79.27
2023-05-25T03:20:16.910Z,79.04
2023-05-25T03:21:25.089Z,79.16
2023-05-25T03:22:29.789Z,79.27
2023-05-25T03:23:32.532Z,79.29
2023-05-25T03:24:41.711Z,79.36
2023-05-25T03:25:45.308Z,79.16
2023-05-25T03:26:48.347Z,79.39
2023-05-25T03:27:54.574Z,79.40
2023-05-25T03:28:57.408Z,79.32
2023-05-25T03:30:00.307Z,79.32
2023-05-25T03:31:04.622Z,79.39
2023-05-25T03:32:07.937Z,79.20
2023-05-25T03:33:13.842Z,79.40
2023-05-25T03:34:20.071Z,79.33
2023-05-25T03:35:22.915Z,79.41
2023-05-25T03:36:28.601Z,79.63
2023-05-25T03:37:31.497Z,79.37
2023-05-25T03:38:35.405Z,79.44
2023-05-25T03:39:38.474Z,79.52
2023-05-25T03:40:41.421Z,79.46
2023-05-25T03:41:44.738Z,79.59
2023-05-25T03:42:47.697Z,79.56
2023-05-25T03:43:50.395Z,79.44
2023-05-25T03:44:53.169Z,79.75
2023-05-25T03:45:55.969Z,79.55
2023-05-25T03:46:58.862Z,79.61
2023-05-25T03:48:01.735Z,79.63
2023-05-25T03:49:04.661Z,79.51
2023-05-25T03:50:07.799Z,79.98
2023-05-25T03:51:10.550Z,79.36
2023-05-25T03:52:13.441Z,79.77
2023-05-25T03:53:17.698Z,79.56
2023-05-25T03:54:21.190Z,79.56
2023-05-25T03:55:24.182Z,79.59
2023-05-25T03:56:27.333Z,79.87
2023-05-25T03:57:30.092Z,79.54
2023-05-25T03:58:34.051Z,79.37
2023-05-25T03:59:36.821Z,79.42
2023-05-25T04:00:39.599Z,79.42
2023-05-25T04:01:42.419Z,79.66
2023-05-25T04:02:45.960Z,79.76
2023-05-25T04:03:49.845Z,79.43
2023-05-25T04:04:53.665Z,79.83
2023-05-25T04:05:58.258Z,79.55
2023-05-25T04:07:01.680Z,79.63
2023-05-25T04:08:08.573Z,79.44
2023-05-25T04:09:11.935Z,79.73
2023-05-25T04:10:14.656Z,79.68
2023-05-25T04:11:17.961Z,79.58
2023-05-25T04:12:20.693Z,79.63
2023-05-25T04:13:23.686Z,79.74
2023-05-25T04:14:26.847Z,79.82
2023-05-25T04:15:30.513Z,79.64
2023-05-25T04:16:45.912Z,79.69
2023-05-25T04:17:50.427Z,79.67
2023-05-25T04:18:53.378Z,79.46
2023-05-25T04:19:56.825Z,79.45
2023-05-25T04:20:59.655Z,79.48
2023-05-25T04:22:04.700Z,79.41
2023-05-25T04:23:07.473Z,79.71
2023-05-25T04:24:11.406Z,79.50
2023-05-25T04:25:14.326Z,79.44
2023-05-25T04:26:17.134Z,79.79
2023-05-25T04:27:22.238Z,79.66
2023-05-25T04:28:25.045Z,79.69
2023-05-25T04:29:32.038Z,79.60
2023-05-25T04:30:56.991Z,79.68
2023-05-25T04:32:30.097Z,79.38
2023-05-25T04:33:51.723Z,79.48
2023-05-25T04:35:03.335Z,79.43
2023-05-25T04:36:14.712Z,79.32
2023-05-25T04:37:17.525Z,79.22
2023-05-25T04:38:21.052Z,79.06
2023-05-25T04:39:23.806Z,79.24
2023-05-25T04:40:30.129Z,79.07
2023-05-25T04:41:33.957Z,79.13
2023-05-25T04:42:40.709Z,79.02
2023-05-25T04:44:04.679Z,78.82
2023-05-25T04:45:10.555Z,78.76
2023-05-25T04:46:17.126Z,78.96
2023-05-25T04:47:20.186Z,78.97
2023-05-25T04:48:24.563Z,78.70
2023-05-25T04:49:27.661Z,78.65
2023-05-25T04:50:30.452Z,78.47
2023-05-25T04:51:33.480Z,78.45
2023-05-25T04:52:36.653Z,78.38
2023-05-25T04:53:39.466Z,78.38
2023-05-25T04:54:43.496Z,78.35
2023-05-25T04:55:46.845Z,78.35
2023-05-25T04:56:49.929Z,78.29
2023-05-25T04:57:53.335Z,78.32
2023-05-25T04:58:56.091Z,78.26
2023-05-25T04:59:59.395Z,78.17
2023-05-25T05:01:02.295Z,78.11
2023-05-25T05:02:05.470Z,77.91
2023-05-25T05:03:08.362Z,77.79
2023-05-25T05:04:11.261Z,77.72
2023-05-25T05:05:14.353Z,77.93
2023-05-25T05:06:17.920Z,77.72
2023-05-25T05:07:22.983Z,78.00
2023-05-25T05:08:25.932Z,77.75
2023-05-25T05:09:29.235Z,77.86
2023-05-25T05:10:34.410Z,77.63
2023-05-25T05:11:37.317Z,77.60
2023-05-25T05:12:41.752Z,77.59
2023-05-25T05:13:45.238Z,77.16
2023-05-25T05:14:47.996Z,76.94
2023-05-25T05:15:50.999Z,76.98
2023-05-25T05:16:53.927Z,76.87
2023-05-25T05:17:57.170Z,76.88
2023-05-25T05:19:03.584Z,76.61
2023-05-25T05:20:07.460Z,76.42
2023-05-25T05:21:10.627Z,76.49
2023-05-25T05:22:15.513Z,76.37
2023-05-25T05:23:18.926Z,76.36
2023-05-25T05:24:21.685Z,76.29
2023-05-25T05:25:24.461Z,76.17
2023-05-25T05:26:27.810Z,76.06
2023-05-25T05:27:30.825Z,75.94
2023-05-25T05:28:49.553Z,75.78
2023-05-25T05:29:53.402Z,75.56
2023-05-25T05:30:56.526Z,75.35
2023-05-25T05:31:59.349Z,75.24
2023-05-25T05:33:02.326Z,75.17
2023-05-25T05:34:10.124Z,74.91
2023-05-25T05:35:12.978Z,74.71
2023-05-25T05:36:21.212Z,74.62
2023-05-25T05:37:23.975Z,74.51
2023-05-25T05:38:27.548Z,74.52
2023-05-25T05:39:30.292Z,74.04
2023-05-25T05:40:33.409Z,73.88
2023-05-25T05:41:36.396Z,73.73
2023-05-25T05:42:39.207Z,73.83
2023-05-25T05:43:42.444Z,73.56
2023-05-25T05:44:45.253Z,73.52
2023-05-25T05:45:48.048Z,73.41
2023-05-25T05:46:51.097Z,73.30
2023-05-25T05:47:54.043Z,73.11
2023-05-25T05:48:57.148Z,73.07
2023-05-25T05:49:59.893Z,72.89
2023-05-25T05:51:05.868Z,72.94
2023-05-25T05:52:09.886Z,72.60
2023-05-25T05:53:12.811Z,72.43
2023-05-25T05:54:15.602Z,72.46
2023-05-25T05:55:18.593Z,72.20
2023-05-25T05:56:21.980Z,71.90
2023-05-25T05:57:24.673Z,71.72
2023-05-25T05:58:27.435Z,71.62
2023-05-25T05:59:30.439Z,71.52
2023-05-25T06:00:33.971Z,71.40
2023-05-25T06:01:36.777Z,71.26
2023-05-25T06:02:41.673Z,71.15
2023-05-25T06:03:45.781Z,71.22
2023-05-25T06:04:48.547Z,71.05
2023-05-25T06:05:51.380Z,71.01
2023-05-25T06:06:55.482Z,70.95
2023-05-25T06:07:58.173Z,70.70
2023-05-25T06:09:03.568Z,70.57
2023-05-25T06:10:06.624Z,70.48
2023-05-25T06:11:09.469Z,70.51
2023-05-25T06:12:12.204Z,70.48
2023-05-25T06:13:15.088Z,70.44
2023-05-25T06:14:18.151Z,70.30
2023-05-25T06:15:21.059Z,70.17
2023-05-25T06:16:25.373Z,70.06
2023-05-25T06:17:28.324Z,70.06
2023-05-25T06:18:31.185Z,69.78
2023-05-25T06:19:34.184Z,69.58
2023-05-25T06:20:36.949Z,69.47
2023-05-25T06:21:39.940Z,69.48
2023-05-25T06:22:42.644Z,69.26
2023-05-25T06:23:45.788Z,69.10
2023-05-25T06:24:48.523Z,68.89
2023-05-25T06:25:52.451Z,69.01
2023-05-25T06:26:55.199Z,68.84
2023-05-25T06:27:58.098Z,68.43
2023-05-25T06:29:00.892Z,68.45
2023-05-25T06:30:03.845Z,68.15
2023-05-25T06:31:06.710Z,67.87
2023-05-25T06:32:11.052Z,67.80
2023-05-25T06:33:14.249Z,67.78
2023-05-25T06:34:18.070Z,67.86
2023-05-25T06:35:21.601Z,67.73
2023-05-25T06:36:27.479Z,67.47
2023-05-25T06:37:35.257Z,67.39
2023-05-25T06:38:38.917Z,67.29
2023-05-25T06:39:43.550Z,67.21
2023-05-25T06:40:46.613Z,67.18
2023-05-25T06:41:51.202Z,66.64
2023-05-25T06:43:02.470Z,66.33
2023-05-25T06:44:19.610Z,66.12
2023-05-25T06:45:23.221Z,65.56
2023-05-25T06:46:26.050Z,65.27
2023-05-25T06:47:29.997Z,64.16
2023-05-25T06:48:33.941Z,63.87
2023-05-25T06:49:36.752Z,64.30
2023-05-25T06:50:40.318Z,64.12
2023-05-25T06:51:42.987Z,63.82
2023-05-25T06:52:46.856Z,62.78
2023-05-25T06:53:49.879Z,63.33
2023-05-25T06:54:52.639Z,63.19
2023-05-25T06:55:55.410Z,63.50
2023-05-25T06:56:58.076Z,63.67
2023-05-25T06:58:01.048Z,63.90
2023-05-25T06:59:03.747Z,63.31
2023-05-25T07:00:07.953Z,63.43
2023-05-25T07:01:10.819Z,63.15
2023-05-25T07:02:13.700Z,63.08
2023-05-25T07:03:16.739Z,62.89
2023-05-25T07:04:19.616Z,62.54
2023-05-25T07:05:22.392Z,62.71
2023-05-25T07:06:25.498Z,62.65
2023-05-25T07:07:28.255Z,62.09
2023-05-25T07:08:31.598Z,61.86
2023-05-25T07:09:34.423Z,62.26
2023-05-25T07:10:37.271Z,62.08
2023-05-25T07:11:39.941Z,62.22
2023-05-25T07:12:42.652Z,61.97
2023-05-25T07:13:45.480Z,62.11
2023-05-25T07:14:48.514Z,62.20
2023-05-25T07:15:52.732Z,61.90
2023-05-25T07:16:55.600Z,61.14
2023-05-25T07:17:58.741Z,61.03
2023-05-25T07:19:01.652Z,60.98
2023-05-25T07:20:06.261Z,60.76
2023-05-25T07:21:11.865Z,60.44
2023-05-25T07:22:17.015Z,60.50
2023-05-25T07:23:19.725Z,60.97
2023-05-25T07:24:22.465Z,60.20
2023-05-25T07:25:25.211Z,59.98
2023-05-25T07:26:28.284Z,60.16
2023-05-25T07:27:31.664Z,60.46
2023-05-25T07:28:34.366Z,60.62
2023-05-25T07:29:37.146Z,60.80
2023-05-25T07:30:40.806Z,60.88
2023-05-25T07:31:43.661Z,60.44
2023-05-25T07:32:46.551Z,60.37
2023-05-25T07:33:49.516Z,60.50
2023-05-25T07:34:52.357Z,60.28
2023-05-25T07:35:55.174Z,60.70
2023-05-25T07:36:57.926Z,60.85
2023-05-25T07:38:01.308Z,61.10
2023-05-25T07:39:04.196Z,61.16
2023-05-25T07:40:07.218Z,61.22
2023-05-25T07:41:09.945Z,61.37
2023-05-25T07:42:12.758Z,61.34
2023-05-25T07:43:15.541Z,60.59
2023-05-25T07:44:18.231Z,60.22
2023-05-25T07:45:21.426Z,60.21
2023-05-25T07:46:25.857Z,60.24
2023-05-25T07:47:28.983Z,60.18
2023-05-25T07:48:31.910Z,58.96
2023-05-25T07:49:34.952Z,59.45
2023-05-25T07:50:37.665Z,59.32
2023-05-25T07:51:40.485Z,59.13
2023-05-25T07:52:43.378Z,57.81
2023-05-25T07:53:46.158Z,57.99
2023-05-25T07:54:48.995Z,57.96
2023-05-25T07:55:51.995Z,57.62
2023-05-25T07:56:54.825Z,57.42
2023-05-25T07:57:57.510Z,57.41
2023-05-25T07:59:01.035Z,56.81
2023-05-25T08:00:11.063Z,56.44
2023-05-25T08:01:17.404Z,56.93
2023-05-25T08:02:20.196Z,56.61
2023-05-25T08:03:31.667Z,56.62
2023-05-25T08:04:43.125Z,56.26
2023-05-25T08:05:46.185Z,56.24
2023-05-25T08:06:49.633Z,56.32
2023-05-25T08:07:53.657Z,56.48
2023-05-25T08:08:56.386Z,56.44
2023-05-25T08:09:59.213Z,56.39
2023-05-25T08:11:01.983Z,56.25
2023-05-25T08:12:27.177Z,55.80
2023-05-25T08:13:27.950Z,55.98
2023-05-25T08:14:30.703Z,55.94
2023-05-25T08:15:33.454Z,56.19
2023-05-25T08:16:36.821Z,56.14
2023-05-25T08:17:39.880Z,55.93
2023-05-25T08:18:46.559Z,55.70
2023-05-25T08:19:49.277Z,56.01
2023-05-25T08:20:52.095Z,56.13
2023-05-25T08:21:54.850Z,55.99
2023-05-25T08:22:59.224Z,55.71
2023-05-25T08:24:04.257Z,55.50
2023-05-25T08:25:08.114Z,55.01
2023-05-25T08:26:29.097Z,54.23
2023-05-25T08:27:36.026Z,54.37
2023-05-25T08:28:39.411Z,54.07
2023-05-25T08:29:42.228Z,54.07
2023-05-25T08:30:45.674Z,54.16
2023-05-25T08:31:49.866Z,53.84
2023-05-25T08:32:52.676Z,53.34
2023-05-25T08:33:55.666Z,53.67
2023-05-25T08:34:58.376Z,53.05
2023-05-25T08:36:01.102Z,52.79
2023-05-25T08:37:03.887Z,52.59
2023-05-25T08:38:06.732Z,52.67
2023-05-25T08:39:10.304Z,52.48
2023-05-25T08:40:15.223Z,52.47
2023-05-25T08:41:19.719Z,52.07
2023-05-25T08:42:23.627Z,52.00
2023-05-25T08:43:26.459Z,51.67
2023-05-25T08:44:29.495Z,51.55
2023-05-25T08:45:49.288Z,51.64
2023-05-25T08:46:52.876Z,51.59
2023-05-25T08:47:59.236Z,51.46
2023-05-25T08:49:09.122Z,51.40
2023-05-25T08:50:12.575Z,51.35
2023-05-25T08:51:16.416Z,51.36
2023-05-25T08:52:21.868Z,51.25
2023-05-25T08:53:26.532Z,51.24
2023-05-25T08:54:30.237Z,50.71
2023-05-25T08:55:36.116Z,50.75
2023-05-25T08:56:52.704Z,50.42
2023-05-25T08:58:00.080Z,50.69
2023-05-25T08:59:07.272Z,50.37
2023-05-25T09:00:13.069Z,50.56
2023-05-25T09:01:18.579Z,50.20
2023-05-25T09:02:26.900Z,50.69
2023-05-25T09:03:30.975Z,50.19
2023-05-25T09:04:34.499Z,50.51
2023-05-25T09:05:38.140Z,49.77
2023-05-25T09:06:41.161Z,50.03
2023-05-25T09:07:44.295Z,50.21
2023-05-25T09:08:47.083Z,50.06
2023-05-25T09:09:50.281Z,49.87
2023-05-25T09:10:53.838Z,50.05
2023-05-25T09:11:57.685Z,49.62
2023-05-25T09:13:09.689Z,49.40
2023-05-25T09:14:23.873Z,49.59
2023-05-25T09:15:26.782Z,49.59
2023-05-25T09:16:31.167Z,49.49
2023-05-25T09:17:37.397Z,49.46
2023-05-25T09:18:41.140Z,49.69
2023-05-25T09:19:44.324Z,49.35
2023-05-25T09:20:47.862Z,49.20
2023-05-25T09:21:53.081Z,49.34
2023-05-25T09:23:03.337Z,49.11
2023-05-25T09:24:06.300Z,48.90
2023-05-25T09:25:10.523Z,48.60
2023-05-25T09:26:13.389Z,48.76
2023-05-25T09:27:17.714Z,49.03
2023-05-25T09:29:26.717Z,49.20
2023-05-25T09:30:32.876Z,49.09
2023-05-25T09:31:38.584Z,48.86
2023-05-25T09:32:41.987Z,48.73
2023-05-25T09:33:46.014Z,48.48
2023-05-25T09:34:49.568Z,48.60
2023-05-25T09:35:52.533Z,48.90
2023-05-25T09:36:56.981Z,49.08
2023-05-25T09:38:00.111Z,49.08
2023-05-25T09:39:03.207Z,48.39
2023-05-25T09:40:06.713Z,48.30
2023-05-25T09:41:09.431Z,47.24
2023-05-25T09:42:12.438Z,47.74
2023-05-25T09:43:24.937Z,48.14
2023-05-25T09:44:28.235Z,47.28
2023-05-25T09:45:31.635Z,47.23
2023-05-25T09:46:37.763Z,48.24
2023-05-25T09:47:40.685Z,48.47
2023-05-25T09:48:43.690Z,48.79
2023-05-25T09:49:47.848Z,49.11
2023-05-25T09:50:51.362Z,49.21
2023-05-25T09:51:54.314Z,49.06
2023-05-25T09:52:59.253Z,48.94
2023-05-25T09:54:02.721Z,49.39
2023-05-25T09:55:09.360Z,49.03
2023-05-25T09:56:12.698Z,49.21
2023-05-25T09:57:16.840Z,49.22
2023-05-25T09:58:19.506Z,48.90
2023-05-25T09:59:22.858Z,48.98
2023-05-25T10:00:25.910Z,49.01
2023-05-25T10:01:28.929Z,49.29
2023-05-25T10:02:32.218Z,49.44
2023-05-25T10:03:34.997Z,49.58
2023-05-25T10:04:38.015Z,49.54
2023-05-25T10:05:40.891Z,49.34
2023-05-25T10:06:45.858Z,49.73
2023-05-25T10:07:49.738Z,49.70
2023-05-25T10:08:53.744Z,49.29
2023-05-25T10:10:02.083Z,48.98
2023-05-25T10:11:05.136Z,48.91
2023-05-25T10:12:08.776Z,48.85
2023-05-25T10:13:12.801Z,49.09
2023-05-25T10:14:20.058Z,49.17
2023-05-25T10:15:23.208Z,49.53
2023-05-25T10:16:28.026Z,49.58
2023-05-25T10:17:32.673Z,48.57
2023-05-25T10:18:37.653Z,48.94
2023-05-25T10:19:43.186Z,49.12
2023-05-25T10:20:48.070Z,48.92
2023-05-25T10:22:13.863Z,48.89
2023-05-25T10:23:20.364Z,49.07
2023-05-25T10:24:35.042Z,48.77
2023-05-25T10:25:44.422Z,48.49
2023-05-25T10:26:49.168Z,48.03
2023-05-25T10:28:00.033Z,47.56
2023-05-25T10:29:04.650Z,47.85
2023-05-25T10:30:08.923Z,47.90
2023-05-25T10:31:12.406Z,47.98
2023-05-25T10:32:16.466Z,47.81
2023-05-25T10:33:20.192Z,48.06
2023-05-25T10:34:23.154Z,47.89
2023-05-25T10:35:26.257Z,47.54
2023-05-25T10:36:30.793Z,47.51
2023-05-25T10:37:34.297Z,47.80
2023-05-25T10:38:39.296Z,47.91
2023-05-25T10:39:44.138Z,47.33
2023-05-25T10:40:51.368Z,47.42
2023-05-25T10:41:54.336Z,47.81
2023-05-25T10:42:57.134Z,47.62
2023-05-25T10:44:00.438Z,47.79
2023-05-25T10:45:07.459Z,47.91
2023-05-25T10:46:10.920Z,47.64
2023-05-25T10:47:15.218Z,47.38
2023-05-25T10:48:18.048Z,47.61
2023-05-25T10:49:31.715Z,47.71
2023-05-25T10:50:35.278Z,47.73
2023-05-25T10:51:38.808Z,47.15
2023-05-25T10:52:41.637Z,47.07
2023-05-25T10:53:45.925Z,46.72
2023-05-25T10:54:48.797Z,46.76
2023-05-25T10:55:51.956Z,46.62
2023-05-25T10:57:10.348Z,46.55
2023-05-25T10:58:13.937Z,46.54
2023-05-25T10:59:25.618Z,45.72
2023-05-25T11:00:30.846Z,45.34
2023-05-25T11:01:49.741Z,45.64
2023-05-25T11:02:56.147Z,45.81
2023-05-25T11:04:11.469Z,45.09
2023-05-25T11:05:26.613Z,45.38
2023-05-25T11:06:49.849Z,45.66
2023-05-25T11:07:53.058Z,45.86
2023-05-25T11:08:59.497Z,46.10
2023-05-25T11:10:03.410Z,46.16
2023-05-25T11:11:06.153Z,45.85
2023-05-25T11:12:09.376Z,45.67
2023-05-25T11:13:30.633Z,45.43
2023-05-25T11:14:36.149Z,45.62
2023-05-25T11:15:40.128Z,45.69
2023-05-25T11:16:43.210Z,45.79
2023-05-25T11:18:00.142Z,45.67
2023-05-25T11:19:03.116Z,45.48
2023-05-25T11:20:06.350Z,44.84
2023-05-25T11:21:18.729Z,44.79
2023-05-25T11:22:37.674Z,45.22
2023-05-25T11:23:55.953Z,45.70
2023-05-25T11:25:00.037Z,45.40
2023-05-25T11:26:06.784Z,43.57
2023-05-25T11:27:09.715Z,43.35
2023-05-25T11:28:12.996Z,43.04
2023-05-25T11:29:16.391Z,43.48
2023-05-25T11:30:19.303Z,43.45
2023-05-25T11:31:27.461Z,43.77
2023-05-25T11:32:30.715Z,43.92
2023-05-25T11:33:33.625Z,44.20
2023-05-25T11:34:36.579Z,44.24
2023-05-25T11:35:39.998Z,43.78
2023-05-25T11:36:42.839Z,44.44
2023-05-25T11:37:50.764Z,44.32
2023-05-25T11:39:04.763Z,44.66
2023-05-25T11:40:11.992Z,44.86
2023-05-25T11:41:32.986Z,44.46
2023-05-25T11:42:36.154Z,44.31
2023-05-25T11:43:40.343Z,43.79
2023-05-25T11:44:43.536Z,43.93
2023-05-25T11:45:55.321Z,43.36
2023-05-25T11:47:01.707Z,43.61
2023-05-25T11:48:05.274Z,43.43
2023-05-25T11:49:08.355Z,42.29
2023-05-25T11:50:17.437Z,42.73
2023-05-25T11:51:24.449Z,42.18
2023-05-25T11:52:27.801Z,42.32
2023-05-25T11:53:32.474Z,42.93
2023-05-25T11:54:35.861Z,42.91
2023-05-25T11:55:41.064Z,43.31
2023-05-25T11:56:43.851Z,42.81
2023-05-25T11:57:46.842Z,43.47
2023-05-25T11:58:50.661Z,43.67
2023-05-25T11:59:54.431Z,43.93
2023-05-25T12:01:12.074Z,43.95
2023-05-25T12:02:14.862Z,44.21
2023-05-25T12:03:31.423Z,44.46
2023-05-25T12:04:34.817Z,45.13
2023-05-25T12:05:38.485Z,45.03
2023-05-25T12:06:41.392Z,45.35
2023-05-25T12:07:46.686Z,45.69
2023-05-25T12:08:49.535Z,45.49
2023-05-25T12:10:05.201Z,45.72
2023-05-25T12:11:09.102Z,46.07
2023-05-25T12:12:12.029Z,45.97
2023-05-25T12:13:14.896Z,46.38
2023-05-25T12:14:17.716Z,46.12
2023-05-25T12:15:24.242Z,46.68
2023-05-25T12:16:27.250Z,46.67
2023-05-25T12:17:30.074Z,46.79
2023-05-25T12:18:32.942Z,47.31
2023-05-25T12:19:36.449Z,47.75
2023-05-25T12:20:41.378Z,47.70
2023-05-25T12:21:44.838Z,48.07
2023-05-25T12:22:47.941Z,48.34
2023-05-25T12:23:51.386Z,48.30
2023-05-25T12:24:54.109Z,48.85
2023-05-25T12:26:09.370Z,48.92
2023-05-25T12:27:18.674Z,49.03
2023-05-25T12:28:21.585Z,49.43
2023-05-25T12:29:25.837Z,49.82
2023-05-25T12:30:28.594Z,50.09
2023-05-25T12:31:32.895Z,50.72
2023-05-25T12:32:50.837Z,50.55
2023-05-25T12:34:10.702Z,50.93
2023-05-25T12:35:13.472Z,51.17
2023-05-25T12:36:16.339Z,51.36
2023-05-25T12:37:20.174Z,51.69
2023-05-25T12:38:23.376Z,52.40
2023-05-25T12:39:29.200Z,52.18
2023-05-25T12:40:32.042Z,52.41
2023-05-25T12:41:54.744Z,53.03
2023-05-25T12:42:58.113Z,53.26
2023-05-25T12:44:00.958Z,53.61
2023-05-25T12:45:07.280Z,53.86
2023-05-25T12:46:10.327Z,53.78
2023-05-25T12:47:17.487Z,54.14
2023-05-25T12:48:26.263Z,54.28
2023-05-25T12:49:28.994Z,54.52
2023-05-25T12:50:32.931Z,54.71
2023-05-25T12:51:39.280Z,54.91
2023-05-25T12:52:43.920Z,55.04
2023-05-25T12:53:47.433Z,55.14
2023-05-25T12:54:50.212Z,55.28
2023-05-25T12:56:03.067Z,55.20
2023-05-25T12:57:06.780Z,55.54
2023-05-25T12:58:25.607Z,54.79
2023-05-25T12:59:31.705Z,54.14
2023-05-25T13:00:35.596Z,53.99
2023-05-25T13:01:38.429Z,53.39
2023-05-25T13:02:44.598Z,53.02
2023-05-25T13:03:47.407Z,52.25
2023-05-25T13:04:50.492Z,52.33
2023-05-25T13:05:59.723Z,52.24
2023-05-25T13:07:02.703Z,51.98
2023-05-25T13:08:06.471Z,52.11
2023-05-25T13:09:09.190Z,51.49
2023-05-25T13:10:17.766Z,51.68
2023-05-25T13:11:20.570Z,51.79
2023-05-25T13:12:23.342Z,52.10
2023-05-25T13:13:27.153Z,52.02
2023-05-25T13:14:30.496Z,51.86
2023-05-25T13:15:33.417Z,51.66
2023-05-25T13:16:36.388Z,51.48
2023-05-25T13:17:41.115Z,51.02
2023-05-25T13:18:43.944Z,51.05
2023-05-25T13:19:46.736Z,51.00
2023-05-25T13:20:51.289Z,50.20
2023-05-25T13:21:56.762Z,49.99
2023-05-25T13:22:59.749Z,50.37
2023-05-25T13:24:02.504Z,50.12
2023-05-25T13:25:05.489Z,50.09
2023-05-25T13:26:08.259Z,50.10
2023-05-25T13:27:11.906Z,49.84
2023-05-25T13:28:14.666Z,49.76
2023-05-25T13:29:17.925Z,49.20
2023-05-25T13:30:22.096Z,48.33
2023-05-25T13:31:25.153Z,48.65
2023-05-25T13:32:31.406Z,48.98
2023-05-25T13:33:35.695Z,48.27
2023-05-25T13:34:38.591Z,48.64
2023-05-25T13:35:46.111Z,48.92
2023-05-25T13:36:49.030Z,48.05
2023-05-25T13:37:51.809Z,48.56
2023-05-25T13:38:54.825Z,48.54
2023-05-25T13:39:58.427Z,48.67
2023-05-25T13:41:01.812Z,48.40
2023-05-25T13:42:04.651Z,47.88
2023-05-25T13:43:07.375Z,47.03
2023-05-25T13:44:11.201Z,45.43
2023-05-25T13:45:14.138Z,45.64
2023-05-25T13:46:32.866Z,45.59
2023-05-25T13:47:37.026Z,44.96
2023-05-25T13:48:40.742Z,44.54
2023-05-25T13:49:43.767Z,43.85
2023-05-25T13:50:46.729Z,43.28
2023-05-25T13:51:49.561Z,43.13
2023-05-25T13:52:52.221Z,42.50
2023-05-25T13:53:54.933Z,40.28
2023-05-25T13:54:57.617Z,39.64
2023-05-25T13:56:00.505Z,38.62
2023-05-25T13:57:03.718Z,39.38